Saturday, December 15, 2018, 1:38 PM EST
Back to Local

KMTP, Montauk Airport

Location: Montauk, NY, United States Lat: 41.067
Local Time: 1:38 PM EST (18:38 GMT) Lon: -71.917
Time Zone: US/Eastern Elev: 6 ft

Show me the last for .
Show Decoded

2018-12-15 12:54 METAR KMTP 151754Z AUTO 06004KT 09/09 A3013 RMK AO1 SLP201 60006 T00890089 10089
                 20078 56029 =
2018-12-15 11:54 METAR KMTP 151654Z AUTO 06004KT 09/09 A3015 RMK AO1 SLP209 P0002 T00890089 =
2018-12-15 10:54 METAR KMTP 151554Z AUTO 02005KT 09/09 A3019 RMK AO1 SLP222 P0004 T00890089 =
2018-12-15 09:54 METAR KMTP 151454Z AUTO 00000KT 09/09 A3021 RMK AO1 SLP230 T00890089 53001 =
2018-12-15 08:54 METAR KMTP 151354Z AUTO 00000KT 08/08 A3020 RMK AO1 SLP227 T00830083 =
2018-12-15 07:54 METAR KMTP 151254Z AUTO 00000KT 08/08 A3019 RMK AO1 SLP223 T00830083 =
2018-12-15 06:54 METAR KMTP 151154Z AUTO 00000KT 08/08 A3021 RMK AO1 SLP229 60002 70004 T00830083
                 10100 20072 55004 =
2018-12-15 05:54 METAR KMTP 151054Z AUTO 00000KT 09/09 A3020 RMK AO1 SLP225 T00890089 =
2018-12-15 04:54 METAR KMTP 150954Z AUTO 20005KT 09/09 A3019 RMK AO1 SLP222 P0001 T00890089 =
2018-12-15 03:54 METAR KMTP 150854Z AUTO 20003KT 08/08 A3022 RMK AO1 SLP233 60001 T00830083 58008
                 =
2018-12-15 02:54 METAR KMTP 150754Z AUTO 00000KT 07/07 A3024 RMK AO1 SLP240 P0001 T00720072 =
2018-12-15 01:54 METAR KMTP 150654Z AUTO 20003KT 08/08 A3024 RMK AO1 SLP240 T00830083 =
2018-12-15 00:54 METAR KMTP 150554Z AUTO 20004KT 09/09 A3025 RMK AO1 SLP242 60002 T00890089 10089
                 20078 56021 =
2018-12-14 23:54 METAR KMTP 150454Z AUTO 19004KT 08/08 A3026 RMK AO1 SLP247 P0001 T00830083
                 400940033 =
2018-12-14 22:54 METAR KMTP 150354Z AUTO 20005KT 09/09 A3029 RMK AO1 SLP256 P0001 T00890089 =
2018-12-14 21:54 METAR KMTP 150254Z AUTO 18005KT 08/08 A3031 RMK AO1 SLP262 T00830083 56018 =
2018-12-14 20:54 METAR KMTP 150154Z AUTO 17004KT 08/08 A3032 RMK AO1 SLP265 T00830083 =
2018-12-14 19:54 METAR KMTP 150054Z AUTO 15004KT 08/08 A3034 RMK AO1 SLP274 T00780078 =
2018-12-14 18:54 METAR KMTP 142354Z AUTO 16004KT 08/08 A3036 RMK AO1 SLP280 T00780078 10094 20072
                 58015 =
2018-12-14 17:54 METAR KMTP 142254Z AUTO 00000KT 08/08 A3038 RMK AO1 SLP288 T00830078 =
2018-12-14 16:54 METAR KMTP 142154Z AUTO 00000KT 07/07 A3041 RMK AO1 SLP296 T00720067 =
2018-12-14 15:54 METAR KMTP 142054Z AUTO 00000KT 08/07 A3040 RMK AO1 SLP295 T00830072 58002 =
2018-12-14 14:54 METAR KMTP 141954Z AUTO 00000KT 09/07 A3042 RMK AO1 SLP300 T00890067 =
2018-12-14 13:54 METAR KMTP 141854Z AUTO 14003KT 09/06 A3040 RMK AO1 SLP294 T00890061 =

Support USWX by starting your Amazon purchase here.